createdAt,value
2023-04-08T00:00:57.286Z,3.50
2023-04-08T00:03:23.881Z,3.03
2023-04-08T00:05:50.467Z,3.92
2023-04-08T00:08:16.992Z,4.10
2023-04-08T00:10:43.428Z,3.55
2023-04-08T00:13:09.946Z,3.53
2023-04-08T00:15:36.985Z,3.38
2023-04-08T00:18:03.709Z,3.25
2023-04-08T00:20:30.338Z,3.30
2023-04-08T00:22:56.847Z,3.30
2023-04-08T00:25:25.377Z,3.85
2023-04-08T00:27:52.432Z,3.15
2023-04-08T00:30:19.469Z,3.45
2023-04-08T00:32:46.855Z,3.35
2023-04-08T00:35:13.961Z,3.30
2023-04-08T00:37:40.883Z,3.30
2023-04-08T00:40:07.852Z,3.38
2023-04-08T00:42:34.316Z,2.85
2023-04-08T00:45:00.945Z,3.50
2023-04-08T00:47:27.480Z,3.38
2023-04-08T00:49:53.990Z,3.05
2023-04-08T00:52:20.669Z,3.20
2023-04-08T00:54:47.251Z,3.47
2023-04-08T00:57:13.932Z,3.22
2023-04-08T00:59:41.279Z,3.10
2023-04-08T01:02:23.066Z,3.35
2023-04-08T01:04:57.745Z,3.35
2023-04-08T01:07:31.284Z,2.90
2023-04-08T01:10:03.984Z,3.05
2023-04-08T01:12:32.808Z,3.53
2023-04-08T01:15:06.883Z,3.13
2023-04-08T01:17:35.927Z,3.10
2023-04-08T01:20:04.522Z,2.95
2023-04-08T01:23:02.131Z,3.05
2023-04-08T01:25:34.173Z,2.85
2023-04-08T01:28:03.720Z,3.03
2023-04-08T01:30:31.293Z,2.95
2023-04-08T01:33:00.593Z,3.10
2023-04-08T01:35:27.617Z,3.22
2023-04-08T01:37:55.684Z,2.90
2023-04-08T01:40:22.374Z,3.08
2023-04-08T01:42:50.720Z,2.83
2023-04-08T01:45:18.386Z,3.25
2023-04-08T01:47:49.039Z,2.65
2023-04-08T01:50:16.766Z,3.08
2023-04-08T01:52:49.096Z,2.67
2023-04-08T01:55:16.395Z,3.15
2023-04-08T01:57:51.530Z,2.70
2023-04-08T02:00:26.659Z,2.78
2023-04-08T02:02:53.929Z,2.72
2023-04-08T02:05:20.661Z,2.60
2023-04-08T02:07:50.580Z,2.50
2023-04-08T02:10:17.052Z,2.47
2023-04-08T02:12:44.571Z,2.60
2023-04-08T02:15:12.957Z,2.97
2023-04-08T02:17:50.625Z,2.50
2023-04-08T02:20:31.152Z,2.70
2023-04-08T02:23:08.392Z,2.65
2023-04-08T02:25:37.702Z,2.40
2023-04-08T02:28:09.691Z,2.60
2023-04-08T02:30:37.582Z,2.60
2023-04-08T02:33:06.080Z,2.38
2023-04-08T02:35:32.993Z,2.30
2023-04-08T02:37:59.756Z,2.50
2023-04-08T02:40:31.545Z,2.30
2023-04-08T02:42:58.459Z,2.40
2023-04-08T02:45:29.981Z,2.38
2023-04-08T02:47:56.598Z,2.30
2023-04-08T02:50:23.159Z,2.17
2023-04-08T02:52:49.633Z,2.50
2023-04-08T02:55:16.446Z,2.10
2023-04-08T02:57:43.183Z,2.33
2023-04-08T03:00:10.545Z,2.10
2023-04-08T03:02:37.149Z,2.25
2023-04-08T03:05:05.468Z,2.15
2023-04-08T03:07:32.645Z,2.00
2023-04-08T03:09:59.168Z,2.28
2023-04-08T03:12:27.639Z,1.95
2023-04-08T03:14:54.469Z,2.13
2023-04-08T03:17:21.795Z,2.20
2023-04-08T03:19:48.256Z,2.33
2023-04-08T03:22:14.691Z,1.90
2023-04-08T03:24:41.183Z,2.13
2023-04-08T03:27:08.459Z,2.13
2023-04-08T03:29:35.075Z,1.95
2023-04-08T03:32:01.794Z,2.28
2023-04-08T03:34:28.281Z,2.17
2023-04-08T03:36:54.759Z,2.08
2023-04-08T03:39:21.243Z,2.03
2023-04-08T03:41:47.739Z,1.95
2023-04-08T03:44:14.176Z,1.98
2023-04-08T03:46:40.774Z,1.98
2023-04-08T03:49:07.469Z,2.20
2023-04-08T03:51:33.980Z,2.03
2023-04-08T03:54:00.488Z,1.83
2023-04-08T03:56:27.067Z,2.17
2023-04-08T03:58:53.569Z,2.15
2023-04-08T04:01:19.980Z,1.90
2023-04-08T04:03:46.623Z,1.75
2023-04-08T04:06:13.171Z,2.00
2023-04-08T04:08:39.621Z,2.10
2023-04-08T04:11:06.118Z,1.70
2023-04-08T04:13:32.582Z,2.00
2023-04-08T04:15:59.123Z,1.92
2023-04-08T04:18:25.757Z,1.88
2023-04-08T04:20:52.287Z,1.90
2023-04-08T04:23:18.711Z,1.80
2023-04-08T04:25:45.145Z,1.80
2023-04-08T04:28:11.602Z,1.80
2023-04-08T04:30:38.973Z,1.90
2023-04-08T04:33:05.934Z,1.80
2023-04-08T04:35:32.754Z,1.60
2023-04-08T04:37:59.587Z,1.70
2023-04-08T04:40:26.159Z,1.60
2023-04-08T04:42:52.609Z,1.70
2023-04-08T04:45:19.178Z,1.40
2023-04-08T04:47:45.641Z,1.80
2023-04-08T04:50:12.122Z,1.52
2023-04-08T04:52:38.627Z,1.75
2023-04-08T04:55:05.703Z,1.65
2023-04-08T04:57:32.139Z,1.90
2023-04-08T04:59:58.960Z,1.60
2023-04-08T05:02:25.590Z,1.67
2023-04-08T05:04:53.787Z,1.60
2023-04-08T05:07:20.360Z,1.60
2023-04-08T05:09:46.862Z,1.40
2023-04-08T05:12:13.498Z,1.67
2023-04-08T05:14:41.307Z,1.40
2023-04-08T05:17:07.945Z,1.60
2023-04-08T05:19:34.390Z,1.75
2023-04-08T05:22:00.964Z,1.80
2023-04-08T05:24:27.360Z,1.80
2023-04-08T05:26:53.818Z,1.65
2023-04-08T05:29:21.812Z,1.80
2023-04-08T05:31:48.501Z,1.77
2023-04-08T05:34:15.984Z,2.00
2023-04-08T05:36:42.566Z,1.73
2023-04-08T05:39:09.047Z,2.10
2023-04-08T05:41:35.505Z,1.70
2023-04-08T05:44:01.998Z,2.13
2023-04-08T05:46:28.516Z,2.45
2023-04-08T05:48:54.941Z,3.22
2023-04-08T05:51:21.381Z,3.45
2023-04-08T05:53:47.818Z,3.50
2023-04-08T05:56:14.249Z,6.60
2023-04-08T05:58:41.059Z,6.88
2023-04-08T06:01:07.550Z,5.97
2023-04-08T06:03:34.192Z,6.53
2023-04-08T06:06:00.871Z,6.00
2023-04-08T06:08:27.361Z,5.93
2023-04-08T06:10:53.797Z,5.00
2023-04-08T06:13:21.114Z,5.07
2023-04-08T06:15:50.354Z,4.93
2023-04-08T06:18:17.637Z,4.30
2023-04-08T06:20:44.275Z,4.35
2023-04-08T06:23:10.800Z,4.45
2023-04-08T06:25:37.216Z,4.22
2023-04-08T06:28:03.809Z,3.97
2023-04-08T06:30:30.281Z,4.13
2023-04-08T06:32:56.783Z,3.80
2023-04-08T06:35:23.323Z,3.97
2023-04-08T06:37:49.760Z,3.95
2023-04-08T06:40:16.334Z,4.00
2023-04-08T06:42:44.551Z,4.03
2023-04-08T06:45:11.357Z,3.75
2023-04-08T06:47:37.876Z,3.33
2023-04-08T06:50:04.685Z,3.67
2023-04-08T06:52:31.171Z,3.42
2023-04-08T06:54:57.591Z,3.72
2023-04-08T06:57:24.034Z,3.70
2023-04-08T06:59:50.780Z,3.50
2023-04-08T07:02:17.466Z,3.30
2023-04-08T07:04:46.666Z,3.70
2023-04-08T07:07:13.306Z,3.90
2023-04-08T07:09:41.586Z,3.35
2023-04-08T07:12:08.022Z,3.72
2023-04-08T07:14:34.610Z,3.90
2023-04-08T07:17:01.136Z,3.53
2023-04-08T07:19:27.710Z,4.05
2023-04-08T07:21:54.306Z,4.30
2023-04-08T07:24:20.810Z,3.95
2023-04-08T07:26:47.788Z,4.10
2023-04-08T07:29:14.264Z,4.13
2023-04-08T07:31:41.027Z,3.55
2023-04-08T07:34:07.499Z,4.18
2023-04-08T07:36:33.946Z,3.90
2023-04-08T07:39:00.439Z,4.10
2023-04-08T07:41:27.096Z,4.28
2023-04-08T07:43:53.640Z,4.25
2023-04-08T07:46:21.058Z,4.30
2023-04-08T07:48:47.731Z,4.10
2023-04-08T07:51:14.906Z,4.45
2023-04-08T07:53:41.514Z,3.88
2023-04-08T07:56:12.594Z,4.00
2023-04-08T07:58:40.502Z,4.18
2023-04-08T08:01:21.254Z,4.45
2023-04-08T08:03:49.061Z,4.25
2023-04-08T08:06:15.956Z,3.55
2023-04-08T08:08:42.480Z,4.20
2023-04-08T08:11:09.214Z,3.80
2023-04-08T08:13:35.855Z,4.20
2023-04-08T08:16:02.439Z,4.30
2023-04-08T08:18:28.932Z,3.90
2023-04-08T08:20:55.359Z,3.90
2023-04-08T08:23:22.091Z,3.90
2023-04-08T08:25:48.552Z,3.92
2023-04-08T08:28:15.014Z,4.28
2023-04-08T08:30:41.451Z,4.47
2023-04-08T08:33:08.079Z,4.22
2023-04-08T08:35:34.653Z,4.28
2023-04-08T08:38:01.249Z,4.25
2023-04-08T08:40:27.764Z,4.60
2023-04-08T08:42:54.190Z,4.13
2023-04-08T08:45:21.272Z,3.92
2023-04-08T08:47:50.337Z,4.30
2023-04-08T08:50:17.668Z,4.38
2023-04-08T08:52:51.403Z,4.60
2023-04-08T08:55:41.454Z,4.13
2023-04-08T08:58:08.252Z,4.60
2023-04-08T09:00:36.747Z,4.38
2023-04-08T09:03:19.960Z,4.30
2023-04-08T09:05:57.751Z,4.45
2023-04-08T09:08:30.110Z,4.32
2023-04-08T09:17:40.423Z,4.50
2023-04-08T09:20:13.640Z,4.70
2023-04-08T09:23:09.645Z,5.75
2023-04-08T09:25:36.347Z,9.55
2023-04-08T09:28:03.306Z,4.30
2023-04-08T09:30:32.268Z,4.13
2023-04-08T09:32:59.218Z,4.50
2023-04-08T09:35:26.136Z,4.60
2023-04-08T09:37:52.786Z,4.50
2023-04-08T09:40:19.443Z,4.68
2023-04-08T09:42:50.575Z,5.07
2023-04-08T09:45:18.273Z,5.75
2023-04-08T09:47:58.032Z,5.63
2023-04-08T09:50:32.226Z,5.03
2023-04-08T09:53:18.881Z,5.50
2023-04-08T09:55:51.358Z,5.20
2023-04-08T09:58:27.643Z,5.43
2023-04-08T10:00:55.382Z,5.80
2023-04-08T10:03:37.437Z,5.47
2023-04-08T10:06:04.591Z,5.50
2023-04-08T10:08:33.086Z,4.85
2023-04-08T10:10:59.897Z,5.32
2023-04-08T10:13:28.441Z,5.13
2023-04-08T10:16:23.166Z,4.80
2023-04-08T10:18:52.950Z,4.68
2023-04-08T10:21:39.695Z,5.20
2023-04-08T10:24:08.380Z,4.75
2023-04-08T10:26:43.304Z,4.85
2023-04-08T10:29:18.787Z,4.65
2023-04-08T10:31:47.049Z,4.10
2023-04-08T10:34:21.332Z,4.18
2023-04-08T10:36:48.913Z,4.15
2023-04-08T10:39:18.502Z,4.22
2023-04-08T10:41:46.322Z,4.50
2023-04-08T10:44:20.408Z,4.18
2023-04-08T10:46:48.459Z,4.43
2023-04-08T10:49:17.952Z,3.85
2023-04-08T10:51:45.940Z,4.10
2023-04-08T10:54:14.611Z,3.92
2023-04-08T10:56:52.456Z,4.10
2023-04-08T10:59:33.042Z,3.90
2023-04-08T11:02:01.443Z,3.78
2023-04-08T11:04:28.495Z,3.72
2023-04-08T11:06:55.532Z,3.97
2023-04-08T11:09:22.123Z,3.80
2023-04-08T11:11:48.676Z,3.58
2023-04-08T11:14:17.370Z,3.72
2023-04-08T11:16:44.015Z,3.60
2023-04-08T11:19:10.681Z,3.85
2023-04-08T11:21:38.708Z,3.83
2023-04-08T11:24:16.516Z,3.55
2023-04-08T11:26:43.407Z,3.55
2023-04-08T11:29:14.196Z,3.70
2023-04-08T11:31:41.825Z,3.42
2023-04-08T11:34:08.395Z,3.85
2023-04-08T11:36:36.672Z,3.53
2023-04-08T11:39:10.367Z,3.45
2023-04-08T11:41:39.192Z,3.40
2023-04-08T11:44:07.018Z,3.35
2023-04-08T11:46:35.101Z,3.47
2023-04-08T11:49:03.849Z,3.05
2023-04-08T11:51:30.695Z,3.22
2023-04-08T11:53:57.894Z,3.72
2023-04-08T11:56:25.537Z,3.53
2023-04-08T11:58:52.847Z,3.80
2023-04-08T12:01:19.785Z,3.63
2023-04-08T12:03:57.320Z,2.90
2023-04-08T12:06:24.629Z,3.33
2023-04-08T12:08:51.048Z,3.30
2023-04-08T12:11:20.026Z,3.53
2023-04-08T12:13:47.013Z,3.40
2023-04-08T12:16:14.323Z,3.28
2023-04-08T12:18:40.955Z,3.15
2023-04-08T12:21:07.806Z,3.30
2023-04-08T12:23:34.460Z,3.10
2023-04-08T12:26:00.906Z,3.42
2023-04-08T12:28:27.528Z,3.30
2023-04-08T12:30:54.050Z,2.90
2023-04-08T12:33:20.546Z,3.35
2023-04-08T12:35:47.062Z,3.22
2023-04-08T12:38:13.477Z,3.13
2023-04-08T12:40:39.889Z,3.17
2023-04-08T12:43:06.394Z,3.05
2023-04-08T12:45:32.966Z,3.20
2023-04-08T12:47:59.460Z,3.25
2023-04-08T12:50:26.274Z,3.10
2023-04-08T12:52:52.749Z,3.03
2023-04-08T12:55:19.192Z,3.10
2023-04-08T12:57:45.708Z,3.00
2023-04-08T13:00:13.716Z,3.05
2023-04-08T13:02:42.223Z,3.30
2023-04-08T13:05:09.151Z,3.15
2023-04-08T13:07:35.709Z,3.00
2023-04-08T13:10:03.621Z,2.55
2023-04-08T13:12:30.402Z,3.05
2023-04-08T13:14:56.892Z,2.95
2023-04-08T13:17:23.379Z,2.78
2023-04-08T13:19:50.742Z,3.20
2023-04-08T13:22:17.358Z,3.10
2023-04-08T13:24:43.854Z,2.72
2023-04-08T13:27:10.393Z,2.60
2023-04-08T13:29:36.869Z,3.05
2023-04-08T13:32:03.407Z,2.92
2023-04-08T13:34:29.875Z,3.00
2023-04-08T13:36:56.332Z,2.90
2023-04-08T13:39:22.983Z,2.90
2023-04-08T13:41:49.952Z,2.90
2023-04-08T13:44:17.076Z,2.90
2023-04-08T13:46:43.528Z,2.60
2023-04-08T13:49:10.941Z,2.45
2023-04-08T13:51:37.394Z,2.80
2023-04-08T13:54:03.929Z,2.75
2023-04-08T13:56:30.348Z,2.78
2023-04-08T13:58:57.627Z,2.70
2023-04-08T14:01:24.400Z,2.58
2023-04-08T14:03:50.883Z,2.55
2023-04-08T14:06:17.418Z,2.55
2023-04-08T14:08:43.883Z,2.60
2023-04-08T14:11:10.488Z,2.88
2023-04-08T14:13:36.917Z,2.13
2023-04-08T14:16:03.458Z,2.30
2023-04-08T14:18:29.937Z,3.10
2023-04-08T14:20:56.813Z,2.67
2023-04-08T14:23:23.263Z,2.80
2023-04-08T14:25:49.765Z,2.40
2023-04-08T14:28:16.250Z,2.50
2023-04-08T14:30:42.940Z,2.40
2023-04-08T14:33:09.870Z,2.70
2023-04-08T14:35:36.936Z,2.50
2023-04-08T14:38:03.430Z,2.63
2023-04-08T14:40:29.890Z,2.40
2023-04-08T14:42:56.416Z,2.75
2023-04-08T14:45:23.045Z,2.60
2023-04-08T14:47:49.579Z,2.53
2023-04-08T14:50:16.848Z,2.53
2023-04-08T14:52:45.224Z,2.50
2023-04-08T14:55:12.112Z,2.95
2023-04-08T14:57:38.608Z,2.90
2023-04-08T15:00:05.844Z,2.70
2023-04-08T15:02:32.371Z,2.50
2023-04-08T15:04:58.905Z,2.92
2023-04-08T15:07:25.978Z,2.78
2023-04-08T15:09:54.195Z,3.13
2023-04-08T15:12:21.072Z,2.80
2023-04-08T15:14:47.553Z,2.08
2023-04-08T15:17:14.091Z,3.00
2023-04-08T15:19:40.557Z,3.72
2023-04-08T15:22:07.223Z,3.53
2023-04-08T15:24:33.711Z,3.58
2023-04-08T15:27:00.878Z,4.20
2023-04-08T15:29:27.507Z,3.30
2023-04-08T15:31:53.980Z,3.53
2023-04-08T15:34:20.469Z,3.17
2023-04-08T15:36:47.661Z,3.38
2023-04-08T15:39:14.166Z,3.67
2023-04-08T15:41:40.697Z,3.20
2023-04-08T15:44:07.125Z,3.67
2023-04-08T15:46:35.014Z,3.28
2023-04-08T15:49:03.357Z,3.25
2023-04-08T15:51:29.853Z,3.22
2023-04-08T15:53:56.553Z,3.38
2023-04-08T15:56:23.089Z,3.55
2023-04-08T15:58:49.701Z,3.10
2023-04-08T16:01:16.998Z,3.30
2023-04-08T16:03:43.693Z,3.53
2023-04-08T16:06:10.319Z,3.15
2023-04-08T16:08:37.154Z,3.13
2023-04-08T16:11:06.305Z,3.28
2023-04-08T16:13:34.201Z,3.25
2023-04-08T16:16:04.038Z,2.90
2023-04-08T16:18:30.716Z,2.50
2023-04-08T16:20:57.207Z,2.55
2023-04-08T16:23:23.925Z,2.65
2023-04-08T16:25:50.420Z,2.60
2023-04-08T16:28:18.100Z,2.72
2023-04-08T16:30:44.844Z,2.60
2023-04-08T16:33:11.676Z,2.70
2023-04-08T16:35:38.618Z,2.60
2023-04-08T16:38:06.129Z,2.80
2023-04-08T16:40:33.599Z,2.97
2023-04-08T16:43:01.683Z,2.63
2023-04-08T16:45:29.697Z,2.70
2023-04-08T16:47:56.961Z,2.80
2023-04-08T16:50:23.561Z,2.60
2023-04-08T16:52:50.639Z,2.88
2023-04-08T16:55:17.889Z,2.70
2023-04-08T16:57:44.481Z,2.42
2023-04-08T17:00:11.359Z,2.35
2023-04-08T17:02:38.039Z,2.72
2023-04-08T17:05:04.946Z,2.22
2023-04-08T17:07:31.609Z,2.53
2023-04-08T17:09:58.208Z,2.60
2023-04-08T17:12:25.004Z,2.75
2023-04-08T17:14:51.653Z,2.50
2023-04-08T17:17:18.178Z,2.88
2023-04-08T17:19:44.626Z,2.88
2023-04-08T17:22:11.366Z,2.83
2023-04-08T17:24:38.095Z,2.50
2023-04-08T17:27:05.552Z,2.72
2023-04-08T17:29:32.026Z,2.88
2023-04-08T17:31:58.942Z,2.92
2023-04-08T17:34:26.380Z,3.03
2023-04-08T17:36:52.937Z,2.72
2023-04-08T17:39:19.542Z,2.83
2023-04-08T17:41:46.278Z,3.00
2023-04-08T17:44:13.007Z,2.72
2023-04-08T17:46:39.740Z,3.15
2023-04-08T17:49:06.255Z,3.05
2023-04-08T17:51:33.079Z,3.00
2023-04-08T17:53:59.715Z,3.40
2023-04-08T17:56:27.923Z,3.30
2023-04-08T17:58:54.563Z,3.10
2023-04-08T18:01:22.519Z,3.38
2023-04-08T18:03:52.247Z,3.50
2023-04-08T18:06:18.946Z,3.50
2023-04-08T18:08:45.505Z,3.60
2023-04-08T18:11:12.211Z,3.95
2023-04-08T18:13:38.873Z,3.60
2023-04-08T18:16:05.765Z,3.63
2023-04-08T18:18:32.347Z,3.60
2023-04-08T18:20:58.992Z,4.18
2023-04-08T18:23:25.576Z,3.30
2023-04-08T18:25:52.157Z,3.40
2023-04-08T18:28:18.681Z,4.47
2023-04-08T18:30:45.327Z,4.50
2023-04-08T18:33:11.850Z,4.10
2023-04-08T18:35:38.304Z,4.10
2023-04-08T18:38:04.833Z,4.10
2023-04-08T18:40:31.560Z,3.92
2023-04-08T18:43:02.091Z,4.00
2023-04-08T18:45:29.433Z,4.15
2023-04-08T18:47:56.070Z,4.18
2023-04-08T18:50:23.264Z,3.95
2023-04-08T18:52:50.007Z,3.83
2023-04-08T18:55:16.657Z,4.20
2023-04-08T18:57:43.148Z,4.35
2023-04-08T19:00:09.885Z,4.68
2023-04-08T19:02:36.556Z,4.57
2023-04-08T19:05:04.032Z,5.10
2023-04-08T19:07:30.832Z,4.80
2023-04-08T19:09:58.559Z,5.32
2023-04-08T19:12:26.301Z,4.93
2023-04-08T19:14:55.531Z,4.78
2023-04-08T19:17:22.140Z,5.20
2023-04-08T19:19:48.591Z,5.05
2023-04-08T19:22:15.053Z,4.70
2023-04-08T19:24:42.048Z,5.22
2023-04-08T19:27:08.806Z,5.05
2023-04-08T19:29:35.238Z,4.72
2023-04-08T19:32:03.066Z,5.20
2023-04-08T19:34:30.151Z,4.57
2023-04-08T19:36:56.651Z,5.13
2023-04-08T19:39:25.261Z,4.80
2023-04-08T19:41:53.143Z,4.60
2023-04-08T19:44:19.638Z,4.38
2023-04-08T19:46:46.332Z,4.45
2023-04-08T19:49:12.885Z,5.18
2023-04-08T19:51:39.340Z,4.43
2023-04-08T19:54:05.827Z,4.55
2023-04-08T19:56:35.380Z,4.47
2023-04-08T19:59:02.014Z,4.50
2023-04-08T20:03:55.765Z,4.40
2023-04-08T20:06:23.159Z,4.80
2023-04-08T20:08:51.848Z,4.60
2023-04-08T20:11:19.221Z,4.43
2023-04-08T20:13:47.084Z,4.43
2023-04-08T20:16:13.767Z,4.70
2023-04-08T20:18:40.696Z,4.82
2023-04-08T20:21:08.209Z,4.43
2023-04-08T20:23:34.859Z,4.70
2023-04-08T20:26:01.517Z,4.72
2023-04-08T20:28:28.218Z,4.70
2023-04-08T20:30:54.763Z,4.53
2023-04-08T20:33:21.280Z,4.60
2023-04-08T20:35:50.447Z,4.68
2023-04-08T20:38:17.225Z,4.65
2023-04-08T20:40:46.806Z,4.65
2023-04-08T20:43:13.251Z,4.63
2023-04-08T20:45:39.743Z,5.47
2023-04-08T20:48:07.441Z,4.53
2023-04-08T20:50:34.218Z,4.95
2023-04-08T20:53:00.866Z,4.80
2023-04-08T20:55:28.342Z,5.05
2023-04-08T20:57:54.785Z,4.80
2023-04-08T21:00:21.355Z,4.90
2023-04-08T21:02:48.434Z,4.72
2023-04-08T21:05:15.035Z,4.50
2023-04-08T21:07:44.524Z,4.63
2023-04-08T21:10:12.576Z,4.63
2023-04-08T21:12:39.011Z,4.75
2023-04-08T21:15:05.995Z,5.05
2023-04-08T21:17:32.508Z,5.00
2023-04-08T21:19:58.990Z,4.85
2023-04-08T21:22:25.440Z,4.80
2023-04-08T21:24:51.870Z,5.05
2023-04-08T21:27:18.378Z,4.90
2023-04-08T21:29:44.840Z,4.93
2023-04-08T21:32:11.306Z,4.95
2023-04-08T21:34:37.865Z,5.20
2023-04-08T21:37:04.293Z,5.10
2023-04-08T21:39:30.742Z,5.00
2023-04-08T21:41:57.515Z,5.07
2023-04-08T21:44:24.116Z,4.93
2023-04-08T21:46:50.646Z,5.13
2023-04-08T21:49:17.214Z,5.40
2023-04-08T21:51:43.668Z,5.28
2023-04-08T21:54:10.345Z,5.07
2023-04-08T21:56:36.843Z,5.20
2023-04-08T21:59:04.148Z,6.32
2023-04-08T22:01:30.815Z,5.50
2023-04-08T22:03:58.015Z,5.40
2023-04-08T22:06:32.119Z,6.03
2023-04-08T22:08:58.955Z,5.95
2023-04-08T22:11:25.540Z,6.10
2023-04-08T22:13:52.031Z,6.55
2023-04-08T22:16:18.657Z,6.85
2023-04-08T22:18:45.532Z,6.13
2023-04-08T22:21:12.158Z,6.85
2023-04-08T22:23:39.046Z,6.65
2023-04-08T22:26:05.548Z,7.07
2023-04-08T22:28:34.196Z,7.13
2023-04-08T22:31:01.398Z,6.78
2023-04-08T22:33:28.067Z,7.20
2023-04-08T22:35:57.496Z,6.80
2023-04-08T22:38:24.213Z,7.30
2023-04-08T22:40:51.101Z,7.40
2023-04-08T22:43:17.614Z,7.13
2023-04-08T22:45:44.121Z,7.05
2023-04-08T22:48:10.642Z,6.97
2023-04-08T22:50:37.111Z,7.20
2023-04-08T22:53:03.879Z,7.82
2023-04-08T22:55:31.150Z,7.35
2023-04-08T22:57:57.752Z,7.70
2023-04-08T23:00:24.393Z,7.32
2023-04-08T23:02:51.130Z,7.75
2023-04-08T23:05:17.949Z,8.30
2023-04-08T23:07:44.383Z,7.95
2023-04-08T23:10:11.001Z,7.53
2023-04-08T23:12:37.504Z,7.90
2023-04-08T23:15:04.553Z,8.00
2023-04-08T23:17:31.136Z,7.90
2023-04-08T23:19:57.639Z,7.97
2023-04-08T23:22:24.280Z,7.88
2023-04-08T23:24:50.808Z,8.40
2023-04-08T23:27:17.302Z,8.02
2023-04-08T23:29:43.772Z,7.85
2023-04-08T23:32:10.310Z,8.25
2023-04-08T23:34:37.365Z,8.60
2023-04-08T23:37:04.403Z,8.60
2023-04-08T23:39:31.963Z,8.38
2023-04-08T23:41:58.409Z,8.23
2023-04-08T23:44:24.879Z,8.98
2023-04-08T23:46:51.346Z,8.45
2023-04-08T23:49:17.883Z,8.35
2023-04-08T23:51:46.881Z,8.27
2023-04-08T23:54:13.310Z,8.35
2023-04-08T23:56:42.837Z,8.43
2023-04-08T23:59:09.262Z,8.10
